createdAt,value
2023-03-22T00:01:21.819Z,11.50
2023-03-22T00:03:51.698Z,11.40
2023-03-22T00:06:19.881Z,11.40
2023-03-22T00:08:51.744Z,11.40
2023-03-22T00:11:20.703Z,11.50
2023-03-22T00:13:48.881Z,11.60
2023-03-22T00:16:17.667Z,11.60
2023-03-22T00:18:47.263Z,11.80
2023-03-22T00:21:17.204Z,11.70
2023-03-22T00:23:46.340Z,11.60
2023-03-22T00:26:15.613Z,11.70
2023-03-22T09:27:46.406Z,25.70
2023-03-22T09:30:14.779Z,25.70
2023-03-22T09:32:42.879Z,25.70
2023-03-22T09:35:11.038Z,26.30
2023-03-22T09:37:39.400Z,27.20
2023-03-22T09:40:09.305Z,27.80
2023-03-22T09:42:39.817Z,28.50
2023-03-22T09:45:16.027Z,29.60
2023-03-22T09:47:47.590Z,30.30
2023-03-22T09:50:20.105Z,31.30
2023-03-22T09:52:48.746Z,32.10
2023-03-22T09:55:26.922Z,32.70
2023-03-22T09:58:03.928Z,33.20
2023-03-22T10:00:42.526Z,32.70
2023-03-22T10:03:22.874Z,32.90
2023-03-22T10:05:58.693Z,33.00
2023-03-22T10:08:38.054Z,32.90
2023-03-22T10:11:16.091Z,32.50
2023-03-22T10:13:52.412Z,32.40
2023-03-22T10:16:29.404Z,31.70
2023-03-22T10:19:04.486Z,32.10
2023-03-22T10:21:34.576Z,31.90
2023-03-22T10:24:07.705Z,31.80
2023-03-22T10:26:40.558Z,32.80
2023-03-22T10:29:14.899Z,33.40
2023-03-22T10:31:46.367Z,34.20
2023-03-22T10:34:21.154Z,34.30
2023-03-22T10:36:51.650Z,34.30
2023-03-22T10:39:28.382Z,34.50
2023-03-22T10:42:00.458Z,34.80
2023-03-22T10:44:31.071Z,35.00
2023-03-22T10:47:07.396Z,35.10
2023-03-22T10:49:39.507Z,35.20
2023-03-22T10:52:21.146Z,35.40
2023-03-22T10:54:49.419Z,35.60
2023-03-22T10:57:17.496Z,35.50
2023-03-22T10:59:48.164Z,35.30
2023-03-22T11:02:23.518Z,35.00
2023-03-22T11:04:54.513Z,34.70
2023-03-22T11:07:32.881Z,34.30
2023-03-22T11:10:22.222Z,34.00
2023-03-22T11:12:52.574Z,34.00
2023-03-22T11:15:31.951Z,33.70
2023-03-22T11:18:05.609Z,33.30
2023-03-22T11:20:35.037Z,33.20
2023-03-22T11:23:06.915Z,33.00
2023-03-22T11:25:37.777Z,33.30
2023-03-22T11:28:11.259Z,32.20
2023-03-22T11:30:40.032Z,30.70
2023-03-22T11:33:18.623Z,29.20
2023-03-22T11:35:48.764Z,27.90
2023-03-22T11:38:30.540Z,26.60
2023-03-22T11:41:02.527Z,25.90
2023-03-22T11:43:36.040Z,24.90
2023-03-22T11:46:05.858Z,24.10
2023-03-22T11:48:36.829Z,23.60
2023-03-22T11:51:12.451Z,23.30
2023-03-22T11:53:43.665Z,23.00
2023-03-22T11:56:14.610Z,22.60
2023-03-22T11:58:55.099Z,22.00
2023-03-22T12:01:32.920Z,21.90
2023-03-22T12:04:05.060Z,21.80
2023-03-22T12:06:36.798Z,21.60
2023-03-22T12:09:08.185Z,21.30
2023-03-22T12:11:41.289Z,21.10
2023-03-22T12:14:17.902Z,20.80
2023-03-22T12:16:49.277Z,20.50
2023-03-22T12:19:27.254Z,20.60
2023-03-22T12:21:56.764Z,20.50
2023-03-22T12:24:28.051Z,20.50
2023-03-22T12:27:01.468Z,20.60
2023-03-22T12:29:30.155Z,20.60
2023-03-22T12:32:03.689Z,20.50
2023-03-22T12:34:41.970Z,20.60
2023-03-22T12:37:15.277Z,20.40
2023-03-22T12:39:50.253Z,20.30
2023-03-22T12:42:24.503Z,20.30
2023-03-22T12:45:04.598Z,20.40
2023-03-22T12:47:41.615Z,20.40
2023-03-22T12:50:15.630Z,20.40
2023-03-22T12:52:48.103Z,20.60
2023-03-22T12:55:25.041Z,20.50
2023-03-22T12:57:54.797Z,20.40
2023-03-22T13:00:28.572Z,20.30
2023-03-22T13:03:01.472Z,20.20
2023-03-22T13:05:35.208Z,20.20
2023-03-22T13:08:05.577Z,20.20
2023-03-22T13:11:03.725Z,20.20
2023-03-22T13:13:45.842Z,20.30
2023-03-22T13:16:25.501Z,20.30
2023-03-22T13:19:17.968Z,20.40
2023-03-22T13:21:50.245Z,20.30
2023-03-22T13:24:23.462Z,20.30
2023-03-22T13:26:53.560Z,20.30
2023-03-22T13:29:24.449Z,20.40
2023-03-22T13:31:58.881Z,20.30
2023-03-22T13:34:39.375Z,20.30
2023-03-22T13:37:18.744Z,20.30
2023-03-22T13:39:51.993Z,20.30
2023-03-22T13:42:22.854Z,20.30
2023-03-22T13:44:58.534Z,20.30
2023-03-22T13:47:36.672Z,20.30
2023-03-22T13:50:12.482Z,20.30
2023-03-22T13:52:45.044Z,20.30
2023-03-22T13:55:32.757Z,20.20
2023-03-22T13:58:01.853Z,20.20
2023-03-22T14:00:48.644Z,20.30
2023-03-22T14:03:25.461Z,20.10
2023-03-22T14:06:10.157Z,20.10
2023-03-22T14:08:41.724Z,20.00
2023-03-22T14:11:21.764Z,19.90
2023-03-22T14:13:52.344Z,19.80
2023-03-22T14:16:27.618Z,19.90
2023-03-22T14:18:56.978Z,19.90
2023-03-22T14:21:33.891Z,19.90
